sensor_id;sensor_type;location;lat;lon;timestamp;P1;durP1;ratioP1;P2;durP2;ratioP2
81039;SDS011;70525;53.224;8.782;2023-06-26T00:02:11;8.82;;;7.88;;
81039;SDS011;70525;53.224;8.782;2023-06-26T00:04:37;10.70;;;8.20;;
81039;SDS011;70525;53.224;8.782;2023-06-26T00:07:04;9.02;;;7.50;;
81039;SDS011;70525;53.224;8.782;2023-06-26T00:09:31;10.40;;;7.72;;
81039;SDS011;70525;53.224;8.782;2023-06-26T00:11:58;8.77;;;7.57;;
81039;SDS011;70525;53.224;8.782;2023-06-26T00:14:25;10.38;;;7.97;;
81039;SDS011;70525;53.224;8.782;2023-06-26T00:16:52;9.57;;;7.72;;
81039;SDS011;70525;53.224;8.782;2023-06-26T00:19:18;9.25;;;7.93;;
81039;SDS011;70525;53.224;8.782;2023-06-26T00:21:45;9.23;;;7.70;;
81039;SDS011;70525;53.224;8.782;2023-06-26T00:24:16;9.20;;;7.82;;
81039;SDS011;70525;53.224;8.782;2023-06-26T00:26:46;8.73;;;7.82;;
81039;SDS011;70525;53.224;8.782;2023-06-26T00:29:13;12.25;;;8.32;;
81039;SDS011;70525;53.224;8.782;2023-06-26T00:31:39;8.98;;;7.57;;
81039;SDS011;70525;53.224;8.782;2023-06-26T00:34:06;10.05;;;8.20;;
81039;SDS011;70525;53.224;8.782;2023-06-26T00:36:32;8.88;;;7.97;;
81039;SDS011;70525;53.224;8.782;2023-06-26T00:38:59;9.63;;;8.02;;
81039;SDS011;70525;53.224;8.782;2023-06-26T00:41:25;9.93;;;8.60;;
81039;SDS011;70525;53.224;8.782;2023-06-26T00:43:52;10.65;;;8.77;;
81039;SDS011;70525;53.224;8.782;2023-06-26T00:46:18;9.90;;;8.20;;
81039;SDS011;70525;53.224;8.782;2023-06-26T00:48:45;10.40;;;8.15;;
81039;SDS011;70525;53.224;8.782;2023-06-26T00:51:12;9.85;;;7.95;;
81039;SDS011;70525;53.224;8.782;2023-06-26T00:53:39;9.40;;;8.40;;
81039;SDS011;70525;53.224;8.782;2023-06-26T00:56:06;9.55;;;8.55;;
81039;SDS011;70525;53.224;8.782;2023-06-26T00:58:33;9.45;;;8.50;;
81039;SDS011;70525;53.224;8.782;2023-06-26T01:00:59;9.73;;;8.20;;
81039;SDS011;70525;53.224;8.782;2023-06-26T01:03:27;11.38;;;8.70;;
81039;SDS011;70525;53.224;8.782;2023-06-26T01:05:54;11.73;;;8.38;;
81039;SDS011;70525;53.224;8.782;2023-06-26T01:08:23;10.90;;;8.52;;
81039;SDS011;70525;53.224;8.782;2023-06-26T01:10:49;10.90;;;8.23;;
81039;SDS011;70525;53.224;8.782;2023-06-26T01:13:16;12.07;;;8.57;;
81039;SDS011;70525;53.224;8.782;2023-06-26T01:15:42;11.88;;;9.27;;
81039;SDS011;70525;53.224;8.782;2023-06-26T01:18:09;12.52;;;8.90;;
81039;SDS011;70525;53.224;8.782;2023-06-26T01:20:36;11.43;;;8.60;;
81039;SDS011;70525;53.224;8.782;2023-06-26T01:25:56;9.82;;;7.97;;
81039;SDS011;70525;53.224;8.782;2023-06-26T01:28:38;10.40;;;8.68;;
81039;SDS011;70525;53.224;8.782;2023-06-26T01:31:05;11.52;;;8.73;;
81039;SDS011;70525;53.224;8.782;2023-06-26T01:33:32;12.43;;;9.85;;
81039;SDS011;70525;53.224;8.782;2023-06-26T01:35:58;10.10;;;8.60;;
81039;SDS011;70525;53.224;8.782;2023-06-26T01:38:25;11.10;;;9.57;;
81039;SDS011;70525;53.224;8.782;2023-06-26T01:40:52;12.18;;;9.18;;
81039;SDS011;70525;53.224;8.782;2023-06-26T01:43:24;11.85;;;9.48;;
81039;SDS011;70525;53.224;8.782;2023-06-26T01:45:54;9.73;;;8.63;;
81039;SDS011;70525;53.224;8.782;2023-06-26T01:48:27;11.20;;;9.43;;
81039;SDS011;70525;53.224;8.782;2023-06-26T01:50:58;10.40;;;9.30;;
81039;SDS011;70525;53.224;8.782;2023-06-26T01:53:25;11.07;;;8.98;;
81039;SDS011;70525;53.224;8.782;2023-06-26T01:55:59;12.82;;;9.50;;
81039;SDS011;70525;53.224;8.782;2023-06-26T01:58:28;11.35;;;9.15;;
81039;SDS011;70525;53.224;8.782;2023-06-26T02:00:55;10.23;;;9.18;;
81039;SDS011;70525;53.224;8.782;2023-06-26T02:03:22;11.43;;;9.60;;
81039;SDS011;70525;53.224;8.782;2023-06-26T02:05:50;10.35;;;8.85;;
81039;SDS011;70525;53.224;8.782;2023-06-26T02:08:18;11.35;;;9.50;;
81039;SDS011;70525;53.224;8.782;2023-06-26T02:10:44;12.35;;;10.50;;
81039;SDS011;70525;53.224;8.782;2023-06-26T02:13:11;10.57;;;9.15;;
81039;SDS011;70525;53.224;8.782;2023-06-26T02:15:37;11.27;;;9.63;;
81039;SDS011;70525;53.224;8.782;2023-06-26T02:18:05;10.25;;;9.05;;
81039;SDS011;70525;53.224;8.782;2023-06-26T02:20:31;12.02;;;10.70;;
81039;SDS011;70525;53.224;8.782;2023-06-26T02:22:59;12.68;;;9.68;;
81039;SDS011;70525;53.224;8.782;2023-06-26T02:27:55;10.85;;;9.25;;
81039;SDS011;70525;53.224;8.782;2023-06-26T02:30:21;11.27;;;9.68;;
81039;SDS011;70525;53.224;8.782;2023-06-26T02:32:48;11.32;;;9.85;;
81039;SDS011;70525;53.224;8.782;2023-06-26T02:35:14;11.20;;;10.02;;
81039;SDS011;70525;53.224;8.782;2023-06-26T02:37:41;12.90;;;11.10;;
81039;SDS011;70525;53.224;8.782;2023-06-26T02:40:07;13.80;;;10.88;;
81039;SDS011;70525;53.224;8.782;2023-06-26T02:42:35;12.40;;;10.40;;
81039;SDS011;70525;53.224;8.782;2023-06-26T02:45:02;12.05;;;10.23;;
81039;SDS011;70525;53.224;8.782;2023-06-26T02:47:28;11.55;;;10.32;;
81039;SDS011;70525;53.224;8.782;2023-06-26T02:49:55;11.95;;;10.02;;
81039;SDS011;70525;53.224;8.782;2023-06-26T02:52:21;13.88;;;10.43;;
81039;SDS011;70525;53.224;8.782;2023-06-26T02:54:47;13.98;;;10.95;;
81039;SDS011;70525;53.224;8.782;2023-06-26T02:57:14;12.05;;;10.82;;
81039;SDS011;70525;53.224;8.782;2023-06-26T02:59:40;13.30;;;11.52;;
81039;SDS011;70525;53.224;8.782;2023-06-26T03:02:07;12.02;;;10.73;;
81039;SDS011;70525;53.224;8.782;2023-06-26T03:04:33;13.85;;;11.70;;
81039;SDS011;70525;53.224;8.782;2023-06-26T03:07:03;13.02;;;10.93;;
81039;SDS011;70525;53.224;8.782;2023-06-26T03:09:29;12.25;;;10.75;;
81039;SDS011;70525;53.224;8.782;2023-06-26T03:11:56;13.95;;;10.57;;
81039;SDS011;70525;53.224;8.782;2023-06-26T03:14:22;13.65;;;11.05;;
81039;SDS011;70525;53.224;8.782;2023-06-26T03:16:49;12.32;;;10.10;;
81039;SDS011;70525;53.224;8.782;2023-06-26T03:19:18;12.57;;;10.60;;
81039;SDS011;70525;53.224;8.782;2023-06-26T03:21:45;13.02;;;10.65;;
81039;SDS011;70525;53.224;8.782;2023-06-26T03:24:11;13.90;;;11.02;;
81039;SDS011;70525;53.224;8.782;2023-06-26T03:26:38;12.88;;;10.85;;
81039;SDS011;70525;53.224;8.782;2023-06-26T03:29:04;13.05;;;11.18;;
81039;SDS011;70525;53.224;8.782;2023-06-26T03:31:31;13.77;;;11.75;;
81039;SDS011;70525;53.224;8.782;2023-06-26T03:33:57;12.43;;;10.90;;
81039;SDS011;70525;53.224;8.782;2023-06-26T03:36:23;13.25;;;11.65;;
81039;SDS011;70525;53.224;8.782;2023-06-26T03:38:50;14.43;;;11.38;;
81039;SDS011;70525;53.224;8.782;2023-06-26T03:41:17;13.90;;;11.20;;
81039;SDS011;70525;53.224;8.782;2023-06-26T03:43:43;13.70;;;10.38;;
81039;SDS011;70525;53.224;8.782;2023-06-26T03:46:10;13.15;;;11.25;;
81039;SDS011;70525;53.224;8.782;2023-06-26T03:48:36;12.57;;;10.60;;
81039;SDS011;70525;53.224;8.782;2023-06-26T03:51:04;13.57;;;11.48;;
81039;SDS011;70525;53.224;8.782;2023-06-26T03:53:33;13.90;;;11.63;;
81039;SDS011;70525;53.224;8.782;2023-06-26T03:55:59;13.43;;;11.40;;
81039;SDS011;70525;53.224;8.782;2023-06-26T03:58:26;13.13;;;11.10;;
81039;SDS011;70525;53.224;8.782;2023-06-26T04:00:52;12.65;;;11.15;;
81039;SDS011;70525;53.224;8.782;2023-06-26T04:03:19;13.13;;;10.95;;
81039;SDS011;70525;53.224;8.782;2023-06-26T04:05:45;14.65;;;12.57;;
81039;SDS011;70525;53.224;8.782;2023-06-26T04:08:12;12.57;;;10.95;;
81039;SDS011;70525;53.224;8.782;2023-06-26T04:10:39;12.23;;;10.93;;
81039;SDS011;70525;53.224;8.782;2023-06-26T04:13:05;13.40;;;11.57;;
81039;SDS011;70525;53.224;8.782;2023-06-26T04:15:32;12.95;;;11.18;;
81039;SDS011;70525;53.224;8.782;2023-06-26T04:17:58;13.75;;;11.95;;
81039;SDS011;70525;53.224;8.782;2023-06-26T04:20:25;15.40;;;11.80;;
81039;SDS011;70525;53.224;8.782;2023-06-26T04:22:51;13.40;;;11.80;;
81039;SDS011;70525;53.224;8.782;2023-06-26T04:25:18;14.13;;;11.10;;
81039;SDS011;70525;53.224;8.782;2023-06-26T04:27:44;12.15;;;10.85;;
81039;SDS011;70525;53.224;8.782;2023-06-26T04:30:11;14.35;;;11.43;;
81039;SDS011;70525;53.224;8.782;2023-06-26T04:32:38;12.52;;;11.23;;
81039;SDS011;70525;53.224;8.782;2023-06-26T04:35:05;13.95;;;11.57;;
81039;SDS011;70525;53.224;8.782;2023-06-26T04:37:31;15.07;;;11.20;;
81039;SDS011;70525;53.224;8.782;2023-06-26T04:39:58;12.43;;;10.65;;
81039;SDS011;70525;53.224;8.782;2023-06-26T04:42:46;13.75;;;11.27;;
81039;SDS011;70525;53.224;8.782;2023-06-26T04:45:12;13.05;;;10.55;;
81039;SDS011;70525;53.224;8.782;2023-06-26T04:47:39;15.38;;;12.35;;
81039;SDS011;70525;53.224;8.782;2023-06-26T04:50:06;14.15;;;10.13;;
81039;SDS011;70525;53.224;8.782;2023-06-26T04:52:33;12.65;;;9.65;;
81039;SDS011;70525;53.224;8.782;2023-06-26T04:54:59;10.80;;;9.70;;
81039;SDS011;70525;53.224;8.782;2023-06-26T04:57:26;12.55;;;9.77;;
81039;SDS011;70525;53.224;8.782;2023-06-26T04:59:52;13.45;;;10.00;;
81039;SDS011;70525;53.224;8.782;2023-06-26T05:02:19;11.27;;;9.90;;
81039;SDS011;70525;53.224;8.782;2023-06-26T05:04:45;12.15;;;10.00;;
81039;SDS011;70525;53.224;8.782;2023-06-26T05:07:13;12.00;;;10.38;;
81039;SDS011;70525;53.224;8.782;2023-06-26T05:09:39;11.50;;;9.68;;
81039;SDS011;70525;53.224;8.782;2023-06-26T05:12:06;11.27;;;10.02;;
81039;SDS011;70525;53.224;8.782;2023-06-26T05:14:32;11.82;;;10.32;;
81039;SDS011;70525;53.224;8.782;2023-06-26T05:16:59;10.98;;;9.65;;
81039;SDS011;70525;53.224;8.782;2023-06-26T05:19:26;10.60;;;9.23;;
81039;SDS011;70525;53.224;8.782;2023-06-26T05:21:52;13.68;;;9.88;;
81039;SDS011;70525;53.224;8.782;2023-06-26T05:24:19;12.77;;;9.98;;
81039;SDS011;70525;53.224;8.782;2023-06-26T05:26:49;10.30;;;9.10;;
81039;SDS011;70525;53.224;8.782;2023-06-26T05:29:16;11.50;;;9.65;;
81039;SDS011;70525;53.224;8.782;2023-06-26T05:31:43;13.55;;;10.23;;
81039;SDS011;70525;53.224;8.782;2023-06-26T05:34:11;10.57;;;9.48;;
81039;SDS011;70525;53.224;8.782;2023-06-26T05:36:37;11.15;;;9.75;;
81039;SDS011;70525;53.224;8.782;2023-06-26T05:40:38;12.00;;;9.45;;
81039;SDS011;70525;53.224;8.782;2023-06-26T05:43:07;9.50;;;8.50;;
81039;SDS011;70525;53.224;8.782;2023-06-26T05:45:33;12.48;;;9.35;;
81039;SDS011;70525;53.224;8.782;2023-06-26T05:48:00;9.60;;;8.40;;
81039;SDS011;70525;53.224;8.782;2023-06-26T05:50:27;10.95;;;8.93;;
81039;SDS011;70525;53.224;8.782;2023-06-26T05:52:54;13.13;;;9.50;;
81039;SDS011;70525;53.224;8.782;2023-06-26T05:55:21;10.35;;;9.25;;
81039;SDS011;70525;53.224;8.782;2023-06-26T05:57:48;11.95;;;8.85;;
81039;SDS011;70525;53.224;8.782;2023-06-26T06:00:16;9.35;;;8.35;;
81039;SDS011;70525;53.224;8.782;2023-06-26T06:04:29;11.05;;;9.82;;
81039;SDS011;70525;53.224;8.782;2023-06-26T06:06:55;11.57;;;8.38;;
81039;SDS011;70525;53.224;8.782;2023-06-26T06:09:22;10.55;;;8.05;;
81039;SDS011;70525;53.224;8.782;2023-06-26T06:11:48;9.27;;;8.27;;
81039;SDS011;70525;53.224;8.782;2023-06-26T06:14:14;9.40;;;7.93;;
81039;SDS011;70525;53.224;8.782;2023-06-26T06:16:41;10.07;;;7.55;;
81039;SDS011;70525;53.224;8.782;2023-06-26T06:19:07;8.63;;;7.70;;
81039;SDS011;70525;53.224;8.782;2023-06-26T06:21:37;8.98;;;7.28;;
81039;SDS011;70525;53.224;8.782;2023-06-26T06:24:41;10.52;;;7.88;;
81039;SDS011;70525;53.224;8.782;2023-06-26T06:27:08;9.52;;;7.40;;
81039;SDS011;70525;53.224;8.782;2023-06-26T06:29:34;10.48;;;7.22;;
81039;SDS011;70525;53.224;8.782;2023-06-26T06:32:01;9.43;;;6.93;;
81039;SDS011;70525;53.224;8.782;2023-06-26T06:34:27;9.73;;;7.10;;
81039;SDS011;70525;53.224;8.782;2023-06-26T06:36:54;10.98;;;8.20;;
81039;SDS011;70525;53.224;8.782;2023-06-26T06:39:20;16.65;;;7.93;;
81039;SDS011;70525;53.224;8.782;2023-06-26T06:41:47;9.35;;;7.28;;
81039;SDS011;70525;53.224;8.782;2023-06-26T06:44:13;12.60;;;7.35;;
81039;SDS011;70525;53.224;8.782;2023-06-26T06:46:40;8.85;;;7.10;;
81039;SDS011;70525;53.224;8.782;2023-06-26T06:49:07;10.88;;;7.35;;
81039;SDS011;70525;53.224;8.782;2023-06-26T06:51:34;10.43;;;8.02;;
81039;SDS011;70525;53.224;8.782;2023-06-26T06:54:01;9.20;;;7.78;;
81039;SDS011;70525;53.224;8.782;2023-06-26T06:56:28;10.02;;;7.95;;
81039;SDS011;70525;53.224;8.782;2023-06-26T06:58:54;12.80;;;7.63;;
81039;SDS011;70525;53.224;8.782;2023-06-26T07:01:21;8.68;;;7.72;;
81039;SDS011;70525;53.224;8.782;2023-06-26T07:03:47;11.45;;;8.38;;
81039;SDS011;70525;53.224;8.782;2023-06-26T07:06:14;11.65;;;8.25;;
81039;SDS011;70525;53.224;8.782;2023-06-26T07:08:40;10.60;;;8.10;;
81039;SDS011;70525;53.224;8.782;2023-06-26T07:11:07;9.63;;;8.63;;
81039;SDS011;70525;53.224;8.782;2023-06-26T07:13:33;9.35;;;8.30;;
81039;SDS011;70525;53.224;8.782;2023-06-26T07:16:00;10.80;;;9.13;;
81039;SDS011;70525;53.224;8.782;2023-06-26T07:18:26;10.25;;;8.65;;
81039;SDS011;70525;53.224;8.782;2023-06-26T07:20:53;10.32;;;8.68;;
81039;SDS011;70525;53.224;8.782;2023-06-26T07:23:19;12.43;;;9.10;;
81039;SDS011;70525;53.224;8.782;2023-06-26T07:25:46;10.90;;;9.15;;
81039;SDS011;70525;53.224;8.782;2023-06-26T07:28:12;10.73;;;8.35;;
81039;SDS011;70525;53.224;8.782;2023-06-26T07:30:39;11.05;;;8.38;;
81039;SDS011;70525;53.224;8.782;2023-06-26T07:33:44;12.48;;;8.38;;
81039;SDS011;70525;53.224;8.782;2023-06-26T07:36:11;10.07;;;7.80;;
81039;SDS011;70525;53.224;8.782;2023-06-26T14:16:37;3.33;;;1.80;;
81039;SDS011;70525;53.224;8.782;2023-06-26T14:19:03;2.42;;;1.30;;
81039;SDS011;70525;53.224;8.782;2023-06-26T14:21:30;5.22;;;1.30;;
81039;SDS011;70525;53.224;8.782;2023-06-26T14:23:57;5.60;;;1.55;;
81039;SDS011;70525;53.224;8.782;2023-06-26T14:26:23;7.47;;;1.70;;
81039;SDS011;70525;53.224;8.782;2023-06-26T20:18:47;6.80;;;1.48;;
81039;SDS011;70525;53.224;8.782;2023-06-26T20:21:13;5.43;;;1.60;;
81039;SDS011;70525;53.224;8.782;2023-06-26T20:23:40;6.72;;;1.92;;
81039;SDS011;70525;53.224;8.782;2023-06-26T20:26:07;6.38;;;1.52;;
81039;SDS011;70525;53.224;8.782;2023-06-26T20:28:33;6.30;;;1.70;;
81039;SDS011;70525;53.224;8.782;2023-06-26T20:31:00;7.55;;;1.95;;
81039;SDS011;70525;53.224;8.782;2023-06-26T20:33:26;4.13;;;1.38;;
81039;SDS011;70525;53.224;8.782;2023-06-26T20:35:53;6.32;;;1.75;;
81039;SDS011;70525;53.224;8.782;2023-06-26T20:38:19;5.70;;;1.70;;
81039;SDS011;70525;53.224;8.782;2023-06-26T20:40:46;6.80;;;1.90;;
81039;SDS011;70525;53.224;8.782;2023-06-26T20:43:12;5.50;;;1.65;;
81039;SDS011;70525;53.224;8.782;2023-06-26T20:45:39;5.35;;;2.00;;
81039;SDS011;70525;53.224;8.782;2023-06-26T20:48:07;8.57;;;1.73;;
81039;SDS011;70525;53.224;8.782;2023-06-26T20:50:33;5.00;;;1.90;;
81039;SDS011;70525;53.224;8.782;2023-06-26T20:53:00;5.38;;;1.75;;
81039;SDS011;70525;53.224;8.782;2023-06-26T20:55:27;8.07;;;2.03;;
81039;SDS011;70525;53.224;8.782;2023-06-26T20:57:53;5.35;;;1.48;;
81039;SDS011;70525;53.224;8.782;2023-06-26T21:00:20;5.10;;;1.80;;
81039;SDS011;70525;53.224;8.782;2023-06-26T21:02:47;5.20;;;1.48;;
81039;SDS011;70525;53.224;8.782;2023-06-26T21:05:14;7.30;;;2.13;;
81039;SDS011;70525;53.224;8.782;2023-06-26T21:07:40;4.97;;;1.63;;
81039;SDS011;70525;53.224;8.782;2023-06-26T21:10:07;8.82;;;1.95;;
81039;SDS011;70525;53.224;8.782;2023-06-26T21:12:35;6.43;;;1.55;;
81039;SDS011;70525;53.224;8.782;2023-06-26T21:15:01;6.70;;;2.17;;
81039;SDS011;70525;53.224;8.782;2023-06-26T21:17:27;13.60;;;1.90;;
81039;SDS011;70525;53.224;8.782;2023-06-26T21:19:54;4.53;;;1.38;;
81039;SDS011;70525;53.224;8.782;2023-06-26T21:22:21;9.63;;;2.25;;
81039;SDS011;70525;53.224;8.782;2023-06-26T21:24:48;7.78;;;1.85;;
81039;SDS011;70525;53.224;8.782;2023-06-26T21:27:16;5.70;;;1.65;;
81039;SDS011;70525;53.224;8.782;2023-06-26T21:29:42;10.65;;;2.10;;
81039;SDS011;70525;53.224;8.782;2023-06-26T21:32:09;7.05;;;1.98;;
81039;SDS011;70525;53.224;8.782;2023-06-26T21:34:35;6.40;;;1.70;;
81039;SDS011;70525;53.224;8.782;2023-06-26T21:37:02;8.38;;;1.85;;
81039;SDS011;70525;53.224;8.782;2023-06-26T21:39:28;6.93;;;1.75;;
81039;SDS011;70525;53.224;8.782;2023-06-26T21:41:55;8.05;;;2.05;;
81039;SDS011;70525;53.224;8.782;2023-06-26T21:44:21;7.15;;;1.60;;
81039;SDS011;70525;53.224;8.782;2023-06-26T21:46:48;5.43;;;1.83;;
81039;SDS011;70525;53.224;8.782;2023-06-26T21:49:14;10.43;;;2.22;;
81039;SDS011;70525;53.224;8.782;2023-06-26T21:51:41;4.03;;;1.65;;
81039;SDS011;70525;53.224;8.782;2023-06-26T21:54:07;7.38;;;1.92;;
81039;SDS011;70525;53.224;8.782;2023-06-26T21:56:34;7.13;;;1.77;;
81039;SDS011;70525;53.224;8.782;2023-06-26T21:59:00;8.52;;;2.00;;
81039;SDS011;70525;53.224;8.782;2023-06-26T22:01:27;7.70;;;1.90;;
81039;SDS011;70525;53.224;8.782;2023-06-26T22:03:53;5.22;;;1.80;;
81039;SDS011;70525;53.224;8.782;2023-06-26T22:06:20;4.43;;;1.52;;
81039;SDS011;70525;53.224;8.782;2023-06-26T22:08:46;5.05;;;1.42;;
81039;SDS011;70525;53.224;8.782;2023-06-26T22:11:12;9.70;;;2.13;;
81039;SDS011;70525;53.224;8.782;2023-06-26T22:13:39;3.58;;;1.70;;
81039;SDS011;70525;53.224;8.782;2023-06-26T22:16:05;5.57;;;1.77;;
81039;SDS011;70525;53.224;8.782;2023-06-26T22:18:32;8.45;;;1.75;;
81039;SDS011;70525;53.224;8.782;2023-06-26T22:20:59;5.90;;;1.80;;
81039;SDS011;70525;53.224;8.782;2023-06-26T22:23:25;8.20;;;2.60;;
81039;SDS011;70525;53.224;8.782;2023-06-26T22:25:51;7.53;;;2.33;;
81039;SDS011;70525;53.224;8.782;2023-06-26T22:28:18;8.98;;;2.17;;
81039;SDS011;70525;53.224;8.782;2023-06-26T22:30:44;5.88;;;1.85;;
81039;SDS011;70525;53.224;8.782;2023-06-26T22:33:11;10.30;;;2.05;;
81039;SDS011;70525;53.224;8.782;2023-06-26T22:35:38;6.70;;;2.20;;
81039;SDS011;70525;53.224;8.782;2023-06-26T22:38:06;5.85;;;1.88;;
81039;SDS011;70525;53.224;8.782;2023-06-26T22:40:32;5.65;;;2.58;;
81039;SDS011;70525;53.224;8.782;2023-06-26T22:42:59;6.38;;;1.60;;
81039;SDS011;70525;53.224;8.782;2023-06-26T22:45:25;5.82;;;1.80;;
81039;SDS011;70525;53.224;8.782;2023-06-26T22:47:52;9.80;;;2.60;;
81039;SDS011;70525;53.224;8.782;2023-06-26T22:50:18;7.40;;;2.00;;
81039;SDS011;70525;53.224;8.782;2023-06-26T22:52:45;9.18;;;2.03;;
81039;SDS011;70525;53.224;8.782;2023-06-26T22:55:11;7.75;;;1.92;;
81039;SDS011;70525;53.224;8.782;2023-06-26T22:57:38;7.88;;;1.98;;
81039;SDS011;70525;53.224;8.782;2023-06-26T23:00:04;7.55;;;2.20;;
81039;SDS011;70525;53.224;8.782;2023-06-26T23:02:36;6.15;;;2.08;;
81039;SDS011;70525;53.224;8.782;2023-06-26T23:05:04;7.25;;;1.80;;
81039;SDS011;70525;53.224;8.782;2023-06-26T23:07:33;9.57;;;2.05;;
81039;SDS011;70525;53.224;8.782;2023-06-26T23:10:03;11.18;;;2.22;;
81039;SDS011;70525;53.224;8.782;2023-06-26T23:12:31;4.75;;;1.75;;
81039;SDS011;70525;53.224;8.782;2023-06-26T23:14:57;5.80;;;1.88;;
81039;SDS011;70525;53.224;8.782;2023-06-26T23:17:24;9.85;;;2.72;;
81039;SDS011;70525;53.224;8.782;2023-06-26T23:19:50;8.55;;;2.50;;
81039;SDS011;70525;53.224;8.782;2023-06-26T23:22:17;7.47;;;2.28;;
81039;SDS011;70525;53.224;8.782;2023-06-26T23:24:46;4.90;;;2.03;;
81039;SDS011;70525;53.224;8.782;2023-06-26T23:27:13;4.50;;;1.77;;
81039;SDS011;70525;53.224;8.782;2023-06-26T23:29:40;12.43;;;2.47;;
81039;SDS011;70525;53.224;8.782;2023-06-26T23:32:08;5.30;;;2.05;;
81039;SDS011;70525;53.224;8.782;2023-06-26T23:34:35;8.30;;;2.30;;
81039;SDS011;70525;53.224;8.782;2023-06-26T23:37:06;10.15;;;2.30;;
81039;SDS011;70525;53.224;8.782;2023-06-26T23:39:41;9.15;;;2.10;;
81039;SDS011;70525;53.224;8.782;2023-06-26T23:42:10;7.82;;;2.38;;
81039;SDS011;70525;53.224;8.782;2023-06-26T23:44:36;5.68;;;1.70;;
81039;SDS011;70525;53.224;8.782;2023-06-26T23:47:03;8.68;;;2.10;;
81039;SDS011;70525;53.224;8.782;2023-06-26T23:49:30;9.68;;;2.63;;
81039;SDS011;70525;53.224;8.782;2023-06-26T23:51:58;6.65;;;2.22;;
81039;SDS011;70525;53.224;8.782;2023-06-26T23:54:24;8.48;;;2.60;;
81039;SDS011;70525;53.224;8.782;2023-06-26T23:56:51;11.63;;;4.00;;
81039;SDS011;70525;53.224;8.782;2023-06-26T23:59:17;7.00;;;2.38;;
